Mount Holly, Vermont
Current Conditions -  °F | °C
As of 12:15 PM on Friday 24 Oct 2014 (Local Time) from KRUT Reporting Station
Overcast Overcast  
Wind Chill:   Ceiling: 800
Heat Index:   Visibility: 9mi
Dew Point:   Wind: 14mph
Humidity: 87%   Direction: 320°NW
Pressure: 29.81"   Gusts: 18mph
Location:  43.45°N, 72.83°W
Report Text: KRUT 241615Z 32012G16KT 9SM OVC008 06/04 A2981 RMK AO1
Loading
Personal Weather Stations






























Interactive Weather Map
Tropical Storm Tracking
New forecast layout! Learn more

10-Day Weather Forecast

Advertisements
Track Severe Weather on mobile